x

Smith Island, Wa (sisw1) Weather Station

2:00pm - Sat 21st Jan 2017 All times are PST. -8 hours from GMT.

  • Wind
    22mph, 24mph gusts
  • 空気 Temp 48°f
  • Sea Pressure 995.1mb
  • Smith Island, Wa
  • Smith Island, Wa

More Historic Weather Station data

Upgrade to MSW Pro to gain access to the past 30 days of data for over 8000 Wavebouys and Weather Stations around the globe.

Join Pro

Comparision Forecast

View Surf forecast
   
Sat 01/21 2:00pm 22 24 mph 995.1mb 48f
1:00pm 17 20 mph 994.9mb 47f
12:00pm 23 24 mph 994.6mb 47f
11:00am 20 22 mph 994.3mb 48f
10:00am 20 21 mph 993.3mb 47f
9:00am 24 28 mph 992.4mb 46f
8:00am 15 16 mph 991.8mb 45f
7:00am 18 20 mph 991.2mb 45f
6:00am 14 16 mph 990.8mb 45f
5:00am 17 20 mph 990.4mb 45f
4:00am 15 17 mph 990.1mb 45f
3:00am 14 16 mph 990mb 45f
2:00am 14
mph
989.4mb 45f
1:00am 14 16 mph 988.9mb 45f
12:00am 11 13 mph 988.5mb 45f
Fri 01/20 11:00pm 11 13 mph 988.1mb 46f
10:00pm 13
mph
987.7mb 46f
9:00pm 9 10 mph 987.5mb 46f
8:00pm 10
mph
987.1mb 46f
7:00pm 9 10 mph 986.7mb 46f
6:00pm 10 11 mph 986.2mb 46f
5:00pm 9 11 mph 985.9mb 46f
4:00pm 9 10 mph 985.9mb 46f
3:00pm 8
mph
985.7mb 47f
2:00pm 3 7 mph 985.8mb 46f
1:00pm 6 7 mph 986.1mb 48f
12:00pm 10
mph
986.5mb 46f
11:00am 11 13 mph 987.4mb 44f
10:00am 1 2 mph 987.8mb 43f
9:00am 5
mph
988.1mb 41f
8:00am 3
mph
988.5mb 41f
7:00am 8 10 mph 989.1mb 41f
6:00am 8 9 mph 990.1mb 41f
5:00am 9 10 mph 990.9mb 42f
4:00am 10 11 mph 991.9mb 43f
3:00am 17 20 mph 992.9mb 44f
2:00am 24 28 mph 993.5mb 45f
1:00am 29 32 mph 994mb 46f
12:00am 34 39 mph 994.6mb 46f
Thu 01/19 11:00pm 28 31 mph 995.7mb 45f
10:00pm 17 21 mph 996.1mb 45f
9:00pm 18 22 mph 996.4mb 45f
8:00pm 17 21 mph 996.6mb 45f
7:00pm 24 28 mph 996.6mb 45f
6:00pm 22 24 mph 996.8mb 45f
5:00pm 21 23 mph 996.7mb 45f
4:00pm 29 32 mph 996.1mb 46f
3:00pm 31 34 mph 996.2mb 46f
2:00pm 28 31 mph 996.5mb 47f
1:00pm 22 24 mph 997.2mb 47f
12:00pm 20 23 mph 997.4mb 47f
11:00am 29 32 mph 997.3mb 47f
10:00am 29 33 mph 997mb 47f
9:00am 24 28 mph 997.1mb 46f
8:00am 29 34 mph 996.4mb 46f
7:00am 31 37 mph 996mb 46f
6:00am 28 32 mph 995.7mb 46f
5:00am 26 30 mph 995.5mb 46f
4:00am 29 32 mph 994.8mb 46f
3:00am 28 33 mph 994.4mb 46f
2:00am 24 26 mph 994.1mb 46f
1:00am 17 21 mph 993.6mb 45f
12:00am 5 6 mph 992.4mb 46f
Wed 01/18 11:00pm 15 17 mph 991.3mb 46f
10:00pm 30 34 mph 989.3mb 47f
9:00pm 16 17 mph 988.9mb 46f
8:00pm 22 23 mph 989mb 47f
7:00pm 20 21 mph 988.7mb 47f
6:00pm 11 15 mph 989.6mb 48f
5:00pm 25 28 mph 989.6mb 49f
4:00pm 25 29 mph 989.9mb 50f
3:00pm 30 32 mph 990.3mb 51f
2:00pm 29 31 mph 990.7mb 51f
1:00pm 29 32 mph 990.5mb 52f
12:00pm 34 41 mph 990.9mb 51f
11:00am 38 41 mph 990.6mb 51f
10:00am 36 39 mph 990.3mb 50f
9:00am 28 31 mph 989.7mb 48f
8:00am 38 41 mph 990.3mb 47f
7:00am 33 37 mph 990mb 47f
6:00am 37 44 mph 991.4mb 49f
5:00am 36 40 mph 992.2mb 49f
4:00am 34 40 mph 992.8mb 50f
3:00am 39 45 mph 992.6mb 49f
2:00am 38 44 mph 993.5mb 49f
1:00am 43 48 mph 993.5mb 49f
12:00am 48 54 mph 994.3mb 49f